Terminal Aerodrome Forecast
Issued by NWS

Home | Current Version | Previous Version | Text Only | Print | Product List | Glossary On
Versions: 1 2 3 4 5 6 7 8 9 10 11 12 13 14 15 16
530
FTUS42 KTBW 290338 AAA
TAFRSW
TAF AMD
KRSW 290338Z 2904/2924 VRB03KT P6SM VCTS SCT030CB BKN080
      TEMPO 2904/2906 VRB12G18KT 3SM TSRA BKN030CB
     FM290600 VRB03KT P6SM VCSH SCT015 BKN050
     FM291500 20006KT P6SM VCTS SCT030CB BKN100
     FM292100 25009KT P6SM OVC050=

USA.gov is the U.S. government's official web portal to all federal, state and local government web resources and services.